createdAt,value
2023-01-04T00:02:00.986Z,13.90
2023-01-04T00:04:29.288Z,13.90
2023-01-04T00:06:58.041Z,13.90
2023-01-04T00:09:26.263Z,13.90
2023-01-04T00:11:54.502Z,13.90
2023-01-04T00:14:22.710Z,13.90
2023-01-04T00:16:52.407Z,13.90
2023-01-04T00:19:20.645Z,13.90
2023-01-04T00:21:48.905Z,13.90
2023-01-04T00:24:17.131Z,13.80
2023-01-04T00:26:45.458Z,13.80
2023-01-04T00:29:15.428Z,13.80
2023-01-04T00:31:45.625Z,13.80
2023-01-04T00:34:17.915Z,13.80
2023-01-04T00:36:46.525Z,13.80
2023-01-04T00:39:16.290Z,13.80
2023-01-04T00:42:01.964Z,13.80
2023-01-04T00:44:31.185Z,13.80
2023-01-04T00:47:00.218Z,13.80
2023-01-04T00:49:30.400Z,13.80
2023-01-04T00:51:59.206Z,13.80
2023-01-04T00:54:27.887Z,13.80
2023-01-04T00:56:56.182Z,13.90
2023-01-04T00:59:24.575Z,13.80
2023-01-04T01:01:53.302Z,13.90
2023-01-04T01:04:24.284Z,13.80
2023-01-04T01:06:54.209Z,13.90
2023-01-04T01:09:23.878Z,13.90
2023-01-04T01:11:52.767Z,13.90
2023-01-04T01:14:23.484Z,13.90
2023-01-04T01:16:56.012Z,13.90
2023-01-04T01:19:26.127Z,13.90
2023-01-04T01:21:57.147Z,13.90
2023-01-04T01:24:25.643Z,13.90
2023-01-04T01:26:54.812Z,13.90
2023-01-04T01:29:23.083Z,13.90
2023-01-04T01:31:51.389Z,13.80
2023-01-04T01:34:19.669Z,13.80
2023-01-04T01:36:47.935Z,13.80
2023-01-04T01:39:17.669Z,13.80
2023-01-04T01:41:46.209Z,13.80
2023-01-04T01:45:11.133Z,13.80
2023-01-04T01:47:43.568Z,13.80
2023-01-04T01:50:23.194Z,13.80
2023-01-04T01:52:52.684Z,13.80
2023-01-04T01:55:22.838Z,13.70
2023-01-04T01:57:52.526Z,13.70
2023-01-04T02:00:20.972Z,13.70
2023-01-04T02:03:00.479Z,13.60
2023-01-04T02:05:29.631Z,13.60
2023-01-04T02:07:57.927Z,13.60
2023-01-04T02:10:28.489Z,13.60
2023-01-04T02:12:56.996Z,13.50
2023-01-04T02:15:29.832Z,13.50
2023-01-04T02:18:06.304Z,13.60
2023-01-04T02:20:42.974Z,13.50
2023-01-04T02:23:59.076Z,13.50
2023-01-04T02:27:09.285Z,13.50
2023-01-04T02:30:19.471Z,13.50
2023-01-04T02:33:01.018Z,13.40
2023-01-04T02:35:37.211Z,13.30
2023-01-04T02:38:16.055Z,13.30
2023-01-04T02:40:53.027Z,13.30
2023-01-04T02:43:45.637Z,13.30
2023-01-04T02:46:18.781Z,13.20
2023-01-04T02:49:17.571Z,13.20
2023-01-04T02:51:45.839Z,13.20
2023-01-04T02:54:16.585Z,13.20
2023-01-04T02:57:05.160Z,13.20
2023-01-04T02:59:56.572Z,13.30
2023-01-04T03:02:53.897Z,13.30
2023-01-04T03:05:46.214Z,13.30
2023-01-04T03:08:22.836Z,13.30
2023-01-04T03:10:56.740Z,13.40
2023-01-04T03:13:29.167Z,13.30
2023-01-04T03:16:02.716Z,13.30
2023-01-04T03:18:32.856Z,13.30
2023-01-04T03:21:05.820Z,13.20
2023-01-04T03:23:55.211Z,13.20
2023-01-04T03:26:44.000Z,13.20
2023-01-04T03:29:36.090Z,13.20
2023-01-04T03:32:26.865Z,13.20
2023-01-04T03:35:13.498Z,13.10
2023-01-04T03:37:50.922Z,13.10
2023-01-04T03:40:44.471Z,13.20
2023-01-04T03:43:36.476Z,13.20
2023-01-04T03:46:27.438Z,13.20
2023-01-04T03:49:02.823Z,13.20
2023-01-04T03:51:35.905Z,13.20
2023-01-04T03:54:10.358Z,13.30
2023-01-04T03:56:41.852Z,13.30
2023-01-04T03:59:10.657Z,13.30
2023-01-04T04:01:39.747Z,13.30
2023-01-04T04:04:25.680Z,13.30
2023-01-04T04:07:11.181Z,13.40
2023-01-04T04:09:40.852Z,13.30
2023-01-04T04:12:09.288Z,13.40
2023-01-04T04:14:37.486Z,13.40
2023-01-04T04:17:05.768Z,13.40
2023-01-04T04:19:34.058Z,13.30
2023-01-04T04:22:02.286Z,13.40
2023-01-04T04:24:30.581Z,13.30
2023-01-04T04:27:00.197Z,13.30
2023-01-04T04:29:28.428Z,13.30
2023-01-04T04:31:56.668Z,13.30
2023-01-04T04:34:24.916Z,13.30
2023-01-04T04:36:53.144Z,13.30
2023-01-04T04:39:22.564Z,13.30
2023-01-04T04:41:49.789Z,13.30
2023-01-04T04:44:20.549Z,13.20
2023-01-04T04:46:49.984Z,13.30
2023-01-04T04:49:19.525Z,13.30
2023-01-04T04:51:48.421Z,13.30
2023-01-04T04:54:18.699Z,13.30
2023-01-04T04:56:47.040Z,13.30
2023-01-04T04:59:15.590Z,13.20
2023-01-04T05:01:45.399Z,13.20
2023-01-04T05:04:16.773Z,13.20
2023-01-04T05:06:45.810Z,13.20
2023-01-04T05:09:14.946Z,13.20
2023-01-04T05:12:01.365Z,13.20
2023-01-04T05:14:30.085Z,13.20
2023-01-04T05:16:59.714Z,13.10
2023-01-04T05:19:28.004Z,13.10
2023-01-04T05:21:56.419Z,13.10
2023-01-04T05:24:24.705Z,13.00
2023-01-04T05:26:52.932Z,13.00
2023-01-04T05:29:38.519Z,13.00
2023-01-04T05:32:08.362Z,13.00
2023-01-04T05:34:36.712Z,13.00
2023-01-04T05:37:05.057Z,13.00
2023-01-04T05:39:33.273Z,13.00
2023-01-04T05:42:18.803Z,13.00
2023-01-04T05:44:47.053Z,12.90
2023-01-04T05:47:16.669Z,12.90
2023-01-04T05:49:45.028Z,12.90
2023-01-04T05:52:13.380Z,12.80
2023-01-04T05:54:42.047Z,12.80
2023-01-04T05:57:11.033Z,12.80
2023-01-04T05:59:42.194Z,12.80
2023-01-04T06:02:17.959Z,12.80
2023-01-04T06:04:46.469Z,12.80
2023-01-04T06:07:14.912Z,12.70
2023-01-04T06:09:43.276Z,12.70
2023-01-04T06:12:12.009Z,12.70
2023-01-04T06:14:40.585Z,12.70
2023-01-04T06:17:09.442Z,12.80
2023-01-04T06:19:39.121Z,12.70
2023-01-04T06:22:07.743Z,12.70
2023-01-04T06:24:36.102Z,12.70
2023-01-04T06:27:04.937Z,12.80
2023-01-04T06:29:33.317Z,12.80
2023-01-04T06:32:01.570Z,12.80
2023-01-04T06:34:31.493Z,12.80
2023-01-04T06:37:01.463Z,12.80
2023-01-04T06:39:30.778Z,12.70
2023-01-04T06:42:06.231Z,12.70
2023-01-04T06:44:35.356Z,12.70
2023-01-04T06:47:03.630Z,12.70
2023-01-04T06:49:31.923Z,12.70
2023-01-04T06:52:01.573Z,12.70
2023-01-04T06:54:32.779Z,12.70
2023-01-04T06:57:01.025Z,12.70
2023-01-04T06:59:29.266Z,12.70
2023-01-04T07:01:57.644Z,12.80
2023-01-04T07:04:26.262Z,12.80
2023-01-04T07:06:54.666Z,12.80
2023-01-04T07:09:24.546Z,12.80
2023-01-04T07:11:52.879Z,12.80
2023-01-04T07:14:21.100Z,12.80
2023-01-04T07:16:49.365Z,12.80
2023-01-04T07:19:17.826Z,12.80
2023-01-04T07:21:46.130Z,12.90
2023-01-04T07:24:14.532Z,12.90
2023-01-04T07:26:44.161Z,12.80
2023-01-04T07:29:18.034Z,12.80
2023-01-04T07:31:49.031Z,12.80
2023-01-04T07:34:19.427Z,12.80
2023-01-04T07:36:48.848Z,12.80
2023-01-04T07:39:18.444Z,12.70
2023-01-04T07:41:48.860Z,12.80
2023-01-04T07:44:18.257Z,12.80
2023-01-04T07:46:46.863Z,12.80
2023-01-04T07:49:18.652Z,12.80
2023-01-04T07:51:47.786Z,12.90
2023-01-04T07:54:16.478Z,12.90
2023-01-04T07:56:44.877Z,12.90
2023-01-04T07:59:16.150Z,12.80
2023-01-04T08:01:44.809Z,12.80
2023-01-04T08:04:14.457Z,12.80
2023-01-04T08:06:44.432Z,12.80
2023-01-04T08:09:13.928Z,12.80
2023-01-04T08:11:42.341Z,12.80
2023-01-04T08:14:11.012Z,12.80
2023-01-04T08:16:42.421Z,12.70
2023-01-04T08:19:14.730Z,12.70
2023-01-04T08:21:43.432Z,12.70
2023-01-04T08:24:12.535Z,12.80
2023-01-04T08:26:42.207Z,12.80
2023-01-04T08:29:11.191Z,12.80
2023-01-04T08:31:41.755Z,12.80
2023-01-04T08:34:11.113Z,12.80
2023-01-04T08:36:48.524Z,12.80
2023-01-04T08:39:17.108Z,12.80
2023-01-04T08:42:02.565Z,12.80
2023-01-04T08:44:34.579Z,12.80
2023-01-04T08:47:04.468Z,12.70
2023-01-04T08:49:32.893Z,12.70
2023-01-04T08:52:01.142Z,12.70
2023-01-04T08:54:29.657Z,12.60
2023-01-04T08:56:57.966Z,12.60
2023-01-04T08:59:26.209Z,12.60
2023-01-04T09:01:58.502Z,12.70
2023-01-04T09:04:32.614Z,12.70
2023-01-04T09:07:00.992Z,12.70
2023-01-04T09:09:30.237Z,12.80
2023-01-04T09:11:59.867Z,12.80
2023-01-04T09:14:28.378Z,12.80
2023-01-04T09:16:57.007Z,12.90
2023-01-04T09:19:25.293Z,12.90
2023-01-04T09:21:55.196Z,12.90
2023-01-04T09:24:23.726Z,12.90
2023-01-04T09:26:51.989Z,13.00
2023-01-04T09:29:20.487Z,12.90
2023-01-04T09:31:49.491Z,12.90
2023-01-04T09:34:18.260Z,12.90
2023-01-04T09:36:47.472Z,12.90
2023-01-04T09:39:23.177Z,12.90
2023-01-04T09:41:58.062Z,12.90
2023-01-04T09:47:38.492Z,12.90
2023-01-04T09:50:13.390Z,12.90
2023-01-04T09:52:50.601Z,12.90
2023-01-04T09:55:37.600Z,12.90
2023-01-04T09:58:18.729Z,12.90
2023-01-04T10:00:50.711Z,12.90
2023-01-04T10:03:23.895Z,12.90
2023-01-04T10:05:54.090Z,12.90
2023-01-04T10:08:23.101Z,12.90
2023-01-04T10:11:06.083Z,12.90
2023-01-04T10:14:01.714Z,12.90
2023-01-04T10:17:11.892Z,12.90
2023-01-04T10:22:41.361Z,12.80
2023-01-04T10:25:24.918Z,12.80
2023-01-04T10:28:08.145Z,12.80
2023-01-04T10:30:47.722Z,12.70
2023-01-04T10:33:20.309Z,12.80
2023-01-04T10:35:50.733Z,12.80
2023-01-04T10:38:22.212Z,12.90
2023-01-04T10:40:50.954Z,12.90
2023-01-04T10:44:11.579Z,13.00
2023-01-04T10:46:31.778Z,13.00
2023-01-04T10:49:07.610Z,13.00
2023-01-04T10:51:43.053Z,13.00
2023-01-04T10:54:20.733Z,13.10
2023-01-04T10:57:02.312Z,13.10
2023-01-04T10:59:40.461Z,13.10
2023-01-04T11:02:18.078Z,13.20
2023-01-04T11:04:53.779Z,13.20
2023-01-04T11:07:27.176Z,13.30
2023-01-04T11:09:59.049Z,13.40
2023-01-04T11:12:28.676Z,13.40
2023-01-04T11:14:58.441Z,13.50
2023-01-04T11:17:27.357Z,13.60
2023-01-04T11:19:56.356Z,13.60
2023-01-04T11:22:30.831Z,13.60
2023-01-04T11:27:57.527Z,13.60
2023-01-04T11:30:32.376Z,13.50
2023-01-04T11:33:04.761Z,13.60
2023-01-04T11:35:42.969Z,13.60
2023-01-04T11:38:14.516Z,13.60
2023-01-04T11:40:42.990Z,13.60
2023-01-04T11:43:19.504Z,13.60
2023-01-04T11:46:04.552Z,13.60
2023-01-04T11:48:39.393Z,13.60
2023-01-04T11:51:18.284Z,13.60
2023-01-04T11:53:47.007Z,13.60
2023-01-04T11:56:18.795Z,13.60
2023-01-04T11:59:06.041Z,13.70
2023-01-04T12:01:39.370Z,13.60
2023-01-04T12:04:17.275Z,13.60
2023-01-04T12:06:52.375Z,13.60
2023-01-04T12:09:22.341Z,13.60
2023-01-04T12:11:52.399Z,13.60
2023-01-04T12:14:24.107Z,13.60
2023-01-04T12:16:59.379Z,13.70
2023-01-04T12:19:28.258Z,13.70
2023-01-04T12:21:59.599Z,13.70
2023-01-04T12:24:30.674Z,13.70
2023-01-04T12:26:59.357Z,13.70
2023-01-04T12:29:57.889Z,13.80
2023-01-04T12:32:48.644Z,13.80
2023-01-04T12:35:58.539Z,13.80
2023-01-04T12:39:00.417Z,13.80
2023-01-04T12:42:19.549Z,13.90
2023-01-04T12:45:24.187Z,13.90
2023-01-04T12:48:13.144Z,13.90
2023-01-04T12:51:32.646Z,13.90
2023-01-04T12:54:03.564Z,14.00
2023-01-04T12:57:08.786Z,14.00
2023-01-04T12:59:39.250Z,13.90
2023-01-04T13:02:23.420Z,14.00
2023-01-04T13:05:16.870Z,13.90
2023-01-04T13:07:46.940Z,14.00
2023-01-04T13:10:28.059Z,13.90
2023-01-04T13:13:20.687Z,13.90
2023-01-04T13:16:00.310Z,13.90
2023-01-04T13:18:36.029Z,13.90
2023-01-04T13:21:13.557Z,13.90
2023-01-04T13:23:48.301Z,13.90
2023-01-04T13:26:33.246Z,13.90
2023-01-04T13:29:17.312Z,13.90
2023-01-04T13:31:55.523Z,13.90
2023-01-04T13:34:27.512Z,14.00
2023-01-04T13:37:08.839Z,14.00
2023-01-04T13:39:38.158Z,13.90
2023-01-04T13:42:12.784Z,13.90
2023-01-04T13:45:25.687Z,13.90
2023-01-04T13:47:58.656Z,13.90
2023-01-04T13:50:34.856Z,13.80
2023-01-04T13:53:08.400Z,13.80
2023-01-04T13:55:39.005Z,13.80
2023-01-04T13:58:16.857Z,13.70
2023-01-04T14:00:49.536Z,13.70
2023-01-04T14:03:37.381Z,13.70
2023-01-04T14:06:22.127Z,13.70
2023-01-04T14:09:05.991Z,13.60
2023-01-04T14:12:07.228Z,13.60
2023-01-04T14:14:41.539Z,13.60
2023-01-04T14:17:19.851Z,13.60
2023-01-04T14:19:51.281Z,13.60
2023-01-04T14:22:53.772Z,13.60
2023-01-04T14:25:44.887Z,13.60
2023-01-04T14:28:48.675Z,13.60
2023-01-04T14:31:37.403Z,13.60
2023-01-04T14:34:15.678Z,13.60
2023-01-04T14:36:44.908Z,13.60
2023-01-04T14:39:33.296Z,13.60
2023-01-04T14:42:04.178Z,13.60
2023-01-04T14:44:35.992Z,13.60
2023-01-04T14:47:07.821Z,13.60
2023-01-04T14:49:36.217Z,13.60
2023-01-04T14:52:10.819Z,13.60
2023-01-04T14:54:39.798Z,13.60
2023-01-04T14:57:11.212Z,13.60
2023-01-04T14:59:39.449Z,13.60
2023-01-04T15:02:07.881Z,13.60
2023-01-04T15:04:36.359Z,13.50
2023-01-04T15:07:05.070Z,13.60
2023-01-04T15:09:33.384Z,13.50
2023-01-04T15:12:02.929Z,13.60
2023-01-04T15:14:32.658Z,13.50
2023-01-04T15:17:00.899Z,13.50
2023-01-04T15:19:34.163Z,13.50
2023-01-04T15:22:05.900Z,13.50
2023-01-04T15:24:34.204Z,13.50
2023-01-04T15:27:02.454Z,13.50
2023-01-04T15:29:32.105Z,13.50
2023-01-04T15:32:00.456Z,13.40
2023-01-04T15:34:28.698Z,13.40
2023-01-04T15:36:56.955Z,13.50
2023-01-04T15:39:25.842Z,13.50
2023-01-04T15:42:11.259Z,13.50
2023-01-04T15:44:41.944Z,13.50
2023-01-04T15:47:10.388Z,13.50
2023-01-04T15:49:39.822Z,13.50
2023-01-04T15:52:08.123Z,13.40
2023-01-04T15:54:36.307Z,13.50
2023-01-04T15:57:04.549Z,13.40
2023-01-04T15:59:33.014Z,13.40
2023-01-04T16:02:02.778Z,13.40
2023-01-04T16:04:31.099Z,13.30
2023-01-04T16:06:59.404Z,13.30
2023-01-04T16:09:27.863Z,13.40
2023-01-04T16:12:13.610Z,13.30
2023-01-04T16:14:41.843Z,13.30
2023-01-04T16:17:11.461Z,13.30
2023-01-04T16:19:39.999Z,13.30
2023-01-04T16:22:08.232Z,13.20
2023-01-04T16:25:09.279Z,13.20
2023-01-04T16:27:29.689Z,13.20
2023-01-04T16:30:01.745Z,13.10
2023-01-04T16:32:31.431Z,13.10
2023-01-04T16:34:59.757Z,13.00
2023-01-04T16:37:29.608Z,13.00
2023-01-04T16:40:06.328Z,13.00
2023-01-04T16:42:35.924Z,13.00
2023-01-04T16:45:04.455Z,12.90
2023-01-04T16:47:40.177Z,12.90
2023-01-04T16:50:09.938Z,12.90
2023-01-04T16:52:38.325Z,12.80
2023-01-04T16:55:08.119Z,12.80
2023-01-04T16:57:36.448Z,12.80
2023-01-04T17:00:06.480Z,12.80
2023-01-04T17:02:36.215Z,12.70
2023-01-04T17:05:04.859Z,12.80
2023-01-04T17:07:33.659Z,12.80
2023-01-04T17:10:01.934Z,12.80
2023-01-04T17:12:47.518Z,12.80
2023-01-04T17:15:42.488Z,12.80
2023-01-04T17:18:06.766Z,12.80
2023-01-04T17:20:35.057Z,12.80
2023-01-04T17:23:03.314Z,12.80
2023-01-04T17:25:32.422Z,12.80
2023-01-04T17:28:01.772Z,12.90
2023-01-04T17:30:30.021Z,12.90
2023-01-04T17:32:58.281Z,12.90
2023-01-04T17:35:27.996Z,12.90
2023-01-04T17:37:56.217Z,12.90
2023-01-04T17:40:24.483Z,12.90
2023-01-04T17:42:52.832Z,12.90
2023-01-04T17:45:21.245Z,12.90
2023-01-04T17:47:49.806Z,12.90
2023-01-04T17:50:18.277Z,12.90
2023-01-04T17:52:49.073Z,12.90
2023-01-04T17:55:17.697Z,12.90
2023-01-04T17:57:46.319Z,13.00
2023-01-04T18:00:15.825Z,12.90
2023-01-04T18:02:46.282Z,12.90
2023-01-04T18:05:14.606Z,13.00
2023-01-04T18:07:43.167Z,13.00
2023-01-04T18:10:21.468Z,12.90
2023-01-04T18:13:01.782Z,12.90
2023-01-04T18:15:30.061Z,12.90
2023-01-04T18:17:58.311Z,12.90
2023-01-04T18:20:27.630Z,12.90
2023-01-04T18:22:55.882Z,12.90
2023-01-04T18:25:26.171Z,12.90
2023-01-04T18:27:54.689Z,12.80
2023-01-04T18:30:23.119Z,12.80
2023-01-04T18:32:52.043Z,12.80
2023-01-04T18:35:20.622Z,12.80
2023-01-04T18:37:49.110Z,12.80
2023-01-04T18:40:17.642Z,12.80
2023-01-04T18:42:51.568Z,12.80
2023-01-04T18:45:20.545Z,12.80
2023-01-04T18:47:49.249Z,12.80
2023-01-04T18:50:18.534Z,12.80
2023-01-04T18:52:46.922Z,12.80
2023-01-04T18:55:15.216Z,12.80
2023-01-04T18:57:43.764Z,12.80
2023-01-04T19:00:15.323Z,12.80
2023-01-04T19:02:44.021Z,12.70
2023-01-04T19:05:13.522Z,12.80
2023-01-04T19:07:41.875Z,12.70
2023-01-04T19:10:10.891Z,12.70
2023-01-04T19:12:39.449Z,12.70
2023-01-04T19:15:09.849Z,12.60
2023-01-04T19:17:39.908Z,12.60
2023-01-04T19:20:09.258Z,12.60
2023-01-04T19:22:37.773Z,12.50
2023-01-04T19:25:07.347Z,12.50
2023-01-04T19:27:35.891Z,12.50
2023-01-04T19:30:04.590Z,12.50
2023-01-04T19:32:33.899Z,12.40
2023-01-04T19:35:04.091Z,12.40
2023-01-04T19:37:32.545Z,12.40
2023-01-04T19:40:00.870Z,12.30
2023-01-04T19:42:29.303Z,12.30
2023-01-04T19:44:57.617Z,12.30
2023-01-04T19:47:25.907Z,12.30
2023-01-04T19:49:54.341Z,12.30
2023-01-04T19:52:24.007Z,12.30
2023-01-04T19:54:52.243Z,12.30
2023-01-04T19:57:21.681Z,12.30
2023-01-04T19:59:49.971Z,12.30
2023-01-04T20:02:18.426Z,12.30
2023-01-04T20:04:47.246Z,12.20
2023-01-04T20:07:15.464Z,12.20
2023-01-04T20:09:45.165Z,12.20
2023-01-04T20:12:13.587Z,12.20
2023-01-04T20:14:41.799Z,12.20
2023-01-04T20:17:10.225Z,12.10
2023-01-04T20:19:38.512Z,12.10
2023-01-04T20:22:07.204Z,12.10
2023-01-04T20:24:35.763Z,12.00
2023-01-04T20:27:05.529Z,12.00
2023-01-04T20:29:34.072Z,12.00
2023-01-04T20:32:03.980Z,12.00
2023-01-04T20:34:32.305Z,12.00
2023-01-04T20:37:00.592Z,11.90
2023-01-04T20:39:28.821Z,11.90
2023-01-04T20:42:15.395Z,11.90
2023-01-04T20:44:45.163Z,11.90
2023-01-04T20:47:13.643Z,11.90
2023-01-04T20:49:42.077Z,11.90
2023-01-04T20:52:10.586Z,11.90
2023-01-04T20:54:39.260Z,11.90
2023-01-04T20:57:08.076Z,11.90
2023-01-04T20:59:36.459Z,11.90
2023-01-04T21:02:06.351Z,11.90
2023-01-04T21:04:34.898Z,11.90
2023-01-04T21:07:03.599Z,11.90
2023-01-04T21:09:31.994Z,11.90
2023-01-04T21:12:04.936Z,11.90
2023-01-04T21:14:38.176Z,11.80
2023-01-04T21:17:07.874Z,11.90
2023-01-04T21:19:36.322Z,11.90
2023-01-04T21:22:04.625Z,11.90
2023-01-04T21:24:33.899Z,11.90
2023-01-04T21:27:02.429Z,12.00
2023-01-04T21:29:30.841Z,11.90
2023-01-04T21:31:59.102Z,11.90
2023-01-04T21:34:31.657Z,11.90
2023-01-04T21:37:00.324Z,11.90
2023-01-04T21:39:28.691Z,11.90
2023-01-04T21:41:57.135Z,11.80
2023-01-04T21:44:25.527Z,11.80
2023-01-04T21:46:54.133Z,11.80
2023-01-04T21:49:22.571Z,11.80
2023-01-04T21:51:52.400Z,11.80
2023-01-04T21:54:20.693Z,11.80
2023-01-04T21:56:50.758Z,11.80
2023-01-04T21:59:19.171Z,11.90
2023-01-04T22:01:47.892Z,11.80
2023-01-04T22:04:16.684Z,11.80
2023-01-04T22:06:45.253Z,11.90
2023-01-04T22:09:14.978Z,11.80
2023-01-04T22:11:43.609Z,11.90
2023-01-04T22:14:12.040Z,11.90
2023-01-04T22:16:40.732Z,11.90
2023-01-04T22:19:11.108Z,11.90
2023-01-04T22:21:39.524Z,11.90
2023-01-04T22:24:09.015Z,11.90
2023-01-04T22:26:38.809Z,11.90
2023-01-04T22:29:07.422Z,11.90
2023-01-04T22:31:36.136Z,11.90
2023-01-04T22:34:04.459Z,11.80
2023-01-04T22:36:33.020Z,11.90
2023-01-04T22:39:01.360Z,11.90
2023-01-04T22:41:30.052Z,11.90
2023-01-04T22:44:01.481Z,11.80
2023-01-04T22:46:31.270Z,11.90
2023-01-04T22:49:00.312Z,11.80
2023-01-04T22:51:30.406Z,11.80
2023-01-04T22:54:00.298Z,11.80
2023-01-04T22:56:29.669Z,11.80
2023-01-04T22:59:00.424Z,11.80
2023-01-04T23:01:31.028Z,11.70
2023-01-04T23:04:01.013Z,11.70
2023-01-04T23:06:31.293Z,11.70
2023-01-04T23:09:01.382Z,11.70
2023-01-04T23:11:31.141Z,11.70
2023-01-04T23:14:02.882Z,11.70
2023-01-04T23:16:32.996Z,11.80
2023-01-04T23:19:02.165Z,11.80
2023-01-04T23:21:31.034Z,11.80
2023-01-04T23:23:59.578Z,11.90
2023-01-04T23:26:29.869Z,11.80
2023-01-04T23:28:58.263Z,11.90
2023-01-04T23:31:30.553Z,11.90
2023-01-04T23:34:00.562Z,11.90
2023-01-04T23:36:30.820Z,12.00
2023-01-04T23:39:01.253Z,12.00
2023-01-04T23:41:43.825Z,12.00
2023-01-04T23:44:14.324Z,12.00
2023-01-04T23:46:44.201Z,12.00
2023-01-04T23:49:12.856Z,12.00
2023-01-04T23:51:42.765Z,12.00
2023-01-04T23:54:11.399Z,12.00
2023-01-04T23:56:40.217Z,11.90
2023-01-04T23:59:09.248Z,11.90
